sensor_id;sensor_type;location;lat;lon;timestamp;P1;durP1;ratioP1;P2;durP2;ratioP2
9700;SDS011;4889;48.620;7.892;2023-01-04T00:02:25;6.40;;;1.27;;
9700;SDS011;4889;48.620;7.892;2023-01-04T00:04:50;1.77;;;1.03;;
9700;SDS011;4889;48.620;7.892;2023-01-04T00:07:15;1.10;;;0.77;;
9700;SDS011;4889;48.620;7.892;2023-01-04T00:09:40;1.37;;;1.00;;
9700;SDS011;4889;48.620;7.892;2023-01-04T00:12:05;3.10;;;1.00;;
9700;SDS011;4889;48.620;7.892;2023-01-04T00:14:31;3.30;;;1.87;;
9700;SDS011;4889;48.620;7.892;2023-01-04T00:16:56;1.43;;;1.27;;
9700;SDS011;4889;48.620;7.892;2023-01-04T00:19:21;0.77;;;0.67;;
9700;SDS011;4889;48.620;7.892;2023-01-04T00:21:46;4.30;;;2.17;;
9700;SDS011;4889;48.620;7.892;2023-01-04T00:24:12;10.27;;;2.13;;
9700;SDS011;4889;48.620;7.892;2023-01-04T00:26:39;5.63;;;3.37;;
9700;SDS011;4889;48.620;7.892;2023-01-04T00:29:05;1.83;;;0.77;;
9700;SDS011;4889;48.620;7.892;2023-01-04T00:31:31;11.40;;;3.27;;
9700;SDS011;4889;48.620;7.892;2023-01-04T00:33:58;1.13;;;1.00;;
9700;SDS011;4889;48.620;7.892;2023-01-04T00:36:23;4.20;;;1.60;;
9700;SDS011;4889;48.620;7.892;2023-01-04T00:38:49;3.67;;;2.23;;
9700;SDS011;4889;48.620;7.892;2023-01-04T00:41:44;3.80;;;2.80;;
9700;SDS011;4889;48.620;7.892;2023-01-04T00:44:10;2.10;;;1.63;;
9700;SDS011;4889;48.620;7.892;2023-01-04T00:46:36;0.50;;;0.20;;
9700;SDS011;4889;48.620;7.892;2023-01-04T00:49:01;5.37;;;3.07;;
9700;SDS011;4889;48.620;7.892;2023-01-04T00:51:27;1.60;;;1.20;;
9700;SDS011;4889;48.620;7.892;2023-01-04T00:53:53;3.20;;;1.37;;
9700;SDS011;4889;48.620;7.892;2023-01-04T00:56:18;2.43;;;2.20;;
9700;SDS011;4889;48.620;7.892;2023-01-04T00:58:43;11.00;;;5.00;;
9700;SDS011;4889;48.620;7.892;2023-01-04T01:01:09;14.33;;;6.17;;
9700;SDS011;4889;48.620;7.892;2023-01-04T01:03:34;13.40;;;6.70;;
9700;SDS011;4889;48.620;7.892;2023-01-04T01:06:03;11.20;;;5.30;;
9700;SDS011;4889;48.620;7.892;2023-01-04T01:08:29;4.60;;;2.87;;
9700;SDS011;4889;48.620;7.892;2023-01-04T01:10:54;16.57;;;3.77;;
9700;SDS011;4889;48.620;7.892;2023-01-04T01:13:20;15.63;;;6.67;;
9700;SDS011;4889;48.620;7.892;2023-01-04T01:15:45;12.87;;;4.07;;
9700;SDS011;4889;48.620;7.892;2023-01-04T01:18:10;0.50;;;0.30;;
9700;SDS011;4889;48.620;7.892;2023-01-04T01:20:39;10.13;;;2.73;;
9700;SDS011;4889;48.620;7.892;2023-01-04T01:23:05;8.53;;;3.50;;
9700;SDS011;4889;48.620;7.892;2023-01-04T01:25:32;26.60;;;9.23;;
9700;SDS011;4889;48.620;7.892;2023-01-04T01:27:57;12.13;;;4.77;;
9700;SDS011;4889;48.620;7.892;2023-01-04T01:30:22;2.27;;;1.33;;
9700;SDS011;4889;48.620;7.892;2023-01-04T01:32:47;3.70;;;1.60;;
9700;SDS011;4889;48.620;7.892;2023-01-04T01:35:13;4.57;;;2.30;;
9700;SDS011;4889;48.620;7.892;2023-01-04T01:37:38;1.80;;;1.57;;
9700;SDS011;4889;48.620;7.892;2023-01-04T01:40:03;18.73;;;6.77;;
9700;SDS011;4889;48.620;7.892;2023-01-04T01:42:29;11.90;;;4.73;;
9700;SDS011;4889;48.620;7.892;2023-01-04T01:44:58;15.80;;;7.00;;
9700;SDS011;4889;48.620;7.892;2023-01-04T01:47:38;19.83;;;6.57;;
9700;SDS011;4889;48.620;7.892;2023-01-04T01:50:07;11.30;;;4.10;;
9700;SDS011;4889;48.620;7.892;2023-01-04T01:52:34;4.27;;;2.37;;
9700;SDS011;4889;48.620;7.892;2023-01-04T01:55:04;5.40;;;3.67;;
9700;SDS011;4889;48.620;7.892;2023-01-04T01:57:31;5.13;;;2.93;;
9700;SDS011;4889;48.620;7.892;2023-01-04T01:59:59;2.63;;;2.43;;
9700;SDS011;4889;48.620;7.892;2023-01-04T02:02:25;0.50;;;0.30;;
9700;SDS011;4889;48.620;7.892;2023-01-04T02:04:50;10.70;;;5.53;;
9700;SDS011;4889;48.620;7.892;2023-01-04T02:07:19;6.57;;;4.43;;
9700;SDS011;4889;48.620;7.892;2023-01-04T02:09:46;4.67;;;2.97;;
9700;SDS011;4889;48.620;7.892;2023-01-04T02:12:13;10.90;;;3.77;;
9700;SDS011;4889;48.620;7.892;2023-01-04T02:14:39;17.23;;;8.30;;
9700;SDS011;4889;48.620;7.892;2023-01-04T02:17:08;22.43;;;10.70;;
9700;SDS011;4889;48.620;7.892;2023-01-04T02:33:02;9.53;;;5.07;;
9700;SDS011;4889;48.620;7.892;2023-01-04T02:35:24;12.67;;;5.10;;
9700;SDS011;4889;48.620;7.892;2023-01-04T02:38:04;9.07;;;4.70;;
9700;SDS011;4889;48.620;7.892;2023-01-04T02:40:36;20.83;;;5.20;;
9700;SDS011;4889;48.620;7.892;2023-01-04T02:43:09;1.13;;;1.03;;
9700;SDS011;4889;48.620;7.892;2023-01-04T02:46:00;13.87;;;4.70;;
9700;SDS011;4889;48.620;7.892;2023-01-04T02:48:33;6.73;;;3.40;;
9700;SDS011;4889;48.620;7.892;2023-01-04T02:51:24;7.93;;;4.27;;
9700;SDS011;4889;48.620;7.892;2023-01-04T02:53:50;9.27;;;2.83;;
9700;SDS011;4889;48.620;7.892;2023-01-04T02:56:19;3.13;;;2.10;;
9700;SDS011;4889;48.620;7.892;2023-01-04T03:01:41;4.13;;;3.43;;
9700;SDS011;4889;48.620;7.892;2023-01-04T03:10:00;9.70;;;2.27;;
9700;SDS011;4889;48.620;7.892;2023-01-04T03:12:26;4.10;;;1.60;;
9700;SDS011;4889;48.620;7.892;2023-01-04T03:18:28;1.90;;;0.83;;
9700;SDS011;4889;48.620;7.892;2023-01-04T03:20:45;9.80;;;4.37;;
9700;SDS011;4889;48.620;7.892;2023-01-04T03:23:12;4.63;;;2.00;;
9700;SDS011;4889;48.620;7.892;2023-01-04T03:28:41;3.90;;;3.40;;
9700;SDS011;4889;48.620;7.892;2023-01-04T03:31:29;12.63;;;4.97;;
9700;SDS011;4889;48.620;7.892;2023-01-04T03:34:15;7.07;;;1.10;;
9700;SDS011;4889;48.620;7.892;2023-01-04T03:37:03;6.20;;;3.13;;
9700;SDS011;4889;48.620;7.892;2023-01-04T03:39:38;8.00;;;2.93;;
9700;SDS011;4889;48.620;7.892;2023-01-04T03:42:41;6.30;;;2.83;;
9700;SDS011;4889;48.620;7.892;2023-01-04T03:45:29;3.60;;;1.83;;
9700;SDS011;4889;48.620;7.892;2023-01-04T03:54:04;8.93;;;3.67;;
9700;SDS011;4889;48.620;7.892;2023-01-04T03:56:31;6.73;;;2.70;;
9700;SDS011;4889;48.620;7.892;2023-01-04T03:58:57;4.80;;;2.03;;
9700;SDS011;4889;48.620;7.892;2023-01-04T04:01:24;8.37;;;3.97;;
9700;SDS011;4889;48.620;7.892;2023-01-04T04:03:50;6.00;;;2.33;;
9700;SDS011;4889;48.620;7.892;2023-01-04T04:06:34;5.70;;;3.10;;
9700;SDS011;4889;48.620;7.892;2023-01-04T04:09:17;4.47;;;2.20;;
9700;SDS011;4889;48.620;7.892;2023-01-04T04:11:42;4.67;;;2.23;;
9700;SDS011;4889;48.620;7.892;2023-01-04T04:14:08;8.83;;;4.20;;
9700;SDS011;4889;48.620;7.892;2023-01-04T04:16:33;3.33;;;1.50;;
9700;SDS011;4889;48.620;7.892;2023-01-04T04:18:58;2.00;;;1.87;;
9700;SDS011;4889;48.620;7.892;2023-01-04T04:21:23;2.30;;;1.23;;
9700;SDS011;4889;48.620;7.892;2023-01-04T04:23:49;3.50;;;2.20;;
9700;SDS011;4889;48.620;7.892;2023-01-04T04:26:14;3.27;;;1.70;;
9700;SDS011;4889;48.620;7.892;2023-01-04T04:28:39;5.30;;;1.90;;
9700;SDS011;4889;48.620;7.892;2023-01-04T04:31:05;3.53;;;2.97;;
9700;SDS011;4889;48.620;7.892;2023-01-04T04:33:30;4.87;;;1.13;;
9700;SDS011;4889;48.620;7.892;2023-01-04T04:35:55;2.20;;;2.00;;
9700;SDS011;4889;48.620;7.892;2023-01-04T04:38:21;1.83;;;0.77;;
9700;SDS011;4889;48.620;7.892;2023-01-04T04:40:46;4.47;;;1.40;;
9700;SDS011;4889;48.620;7.892;2023-01-04T04:43:33;11.93;;;2.00;;
9700;SDS011;4889;48.620;7.892;2023-01-04T04:45:59;1.53;;;1.10;;
9700;SDS011;4889;48.620;7.892;2023-01-04T04:48:24;6.40;;;2.17;;
9700;SDS011;4889;48.620;7.892;2023-01-04T04:50:49;1.00;;;0.90;;
9700;SDS011;4889;48.620;7.892;2023-01-04T04:53:15;4.00;;;1.90;;
9700;SDS011;4889;48.620;7.892;2023-01-04T04:55:40;1.70;;;1.30;;
9700;SDS011;4889;48.620;7.892;2023-01-04T04:58:05;2.80;;;1.23;;
9700;SDS011;4889;48.620;7.892;2023-01-04T05:00:30;1.30;;;0.87;;
9700;SDS011;4889;48.620;7.892;2023-01-04T05:02:59;1.83;;;1.13;;
9700;SDS011;4889;48.620;7.892;2023-01-04T05:05:24;0.60;;;0.50;;
9700;SDS011;4889;48.620;7.892;2023-01-04T05:07:50;1.80;;;0.80;;
9700;SDS011;4889;48.620;7.892;2023-01-04T05:10:15;2.40;;;0.60;;
9700;SDS011;4889;48.620;7.892;2023-01-04T05:12:40;0.90;;;0.73;;
9700;SDS011;4889;48.620;7.892;2023-01-04T05:15:27;2.00;;;0.40;;
9700;SDS011;4889;48.620;7.892;2023-01-04T05:17:53;4.30;;;0.77;;
9700;SDS011;4889;48.620;7.892;2023-01-04T05:20:18;2.40;;;0.63;;
9700;SDS011;4889;48.620;7.892;2023-01-04T05:22:43;1.30;;;0.77;;
9700;SDS011;4889;48.620;7.892;2023-01-04T05:25:08;0.83;;;0.57;;
9700;SDS011;4889;48.620;7.892;2023-01-04T05:27:35;1.33;;;0.73;;
9700;SDS011;4889;48.620;7.892;2023-01-04T05:30:01;0.50;;;0.30;;
9700;SDS011;4889;48.620;7.892;2023-01-04T05:32:44;0.67;;;0.37;;
9700;SDS011;4889;48.620;7.892;2023-01-04T05:35:10;0.50;;;0.20;;
9700;SDS011;4889;48.620;7.892;2023-01-04T05:37:35;2.77;;;0.83;;
9700;SDS011;4889;48.620;7.892;2023-01-04T05:40:00;2.03;;;1.03;;
9700;SDS011;4889;48.620;7.892;2023-01-04T05:42:25;1.67;;;0.60;;
9700;SDS011;4889;48.620;7.892;2023-01-04T05:44:52;1.07;;;0.60;;
9700;SDS011;4889;48.620;7.892;2023-01-04T05:47:17;2.40;;;1.13;;
9700;SDS011;4889;48.620;7.892;2023-01-04T05:49:42;0.60;;;0.50;;
9700;SDS011;4889;48.620;7.892;2023-01-04T05:52:08;1.03;;;0.50;;
9700;SDS011;4889;48.620;7.892;2023-01-04T05:54:33;0.60;;;0.40;;
9700;SDS011;4889;48.620;7.892;2023-01-04T05:56:58;0.90;;;0.30;;
9700;SDS011;4889;48.620;7.892;2023-01-04T05:59:23;0.50;;;0.20;;
9700;SDS011;4889;48.620;7.892;2023-01-04T06:01:49;0.50;;;0.30;;
9700;SDS011;4889;48.620;7.892;2023-01-04T06:04:14;1.33;;;0.57;;
9700;SDS011;4889;48.620;7.892;2023-01-04T06:06:39;0.57;;;0.40;;
9700;SDS011;4889;48.620;7.892;2023-01-04T06:09:04;1.27;;;0.50;;
9700;SDS011;4889;48.620;7.892;2023-01-04T06:11:30;0.60;;;0.30;;
9700;SDS011;4889;48.620;7.892;2023-01-04T06:13:55;0.50;;;0.20;;
9700;SDS011;4889;48.620;7.892;2023-01-04T06:16:21;1.10;;;0.50;;
9700;SDS011;4889;48.620;7.892;2023-01-04T06:18:46;1.40;;;0.77;;
9700;SDS011;4889;48.620;7.892;2023-01-04T06:21:11;11.47;;;1.27;;
9700;SDS011;4889;48.620;7.892;2023-01-04T06:23:36;1.63;;;0.50;;
9700;SDS011;4889;48.620;7.892;2023-01-04T06:26:01;1.10;;;0.70;;
9700;SDS011;4889;48.620;7.892;2023-01-04T06:28:27;1.20;;;0.80;;
9700;SDS011;4889;48.620;7.892;2023-01-04T06:30:53;1.97;;;1.00;;
9700;SDS011;4889;48.620;7.892;2023-01-04T06:33:18;0.80;;;0.50;;
9700;SDS011;4889;48.620;7.892;2023-01-04T06:35:43;0.50;;;0.30;;
9700;SDS011;4889;48.620;7.892;2023-01-04T06:38:08;0.80;;;0.50;;
9700;SDS011;4889;48.620;7.892;2023-01-04T06:40:33;0.60;;;0.40;;
9700;SDS011;4889;48.620;7.892;2023-01-04T06:42:59;1.53;;;0.47;;
9700;SDS011;4889;48.620;7.892;2023-01-04T06:45:24;0.60;;;0.30;;
9700;SDS011;4889;48.620;7.892;2023-01-04T06:47:49;0.60;;;0.30;;
9700;SDS011;4889;48.620;7.892;2023-01-04T06:50:14;0.50;;;0.20;;
9700;SDS011;4889;48.620;7.892;2023-01-04T06:52:40;1.80;;;0.70;;
9700;SDS011;4889;48.620;7.892;2023-01-04T06:55:05;0.60;;;0.30;;
9700;SDS011;4889;48.620;7.892;2023-01-04T06:57:33;0.50;;;0.30;;
9700;SDS011;4889;48.620;7.892;2023-01-04T06:59:58;0.93;;;0.47;;
9700;SDS011;4889;48.620;7.892;2023-01-04T07:02:23;0.60;;;0.50;;
9700;SDS011;4889;48.620;7.892;2023-01-04T07:04:49;0.60;;;0.20;;
9700;SDS011;4889;48.620;7.892;2023-01-04T07:07:14;0.50;;;0.20;;
9700;SDS011;4889;48.620;7.892;2023-01-04T07:09:39;0.50;;;0.20;;
9700;SDS011;4889;48.620;7.892;2023-01-04T07:12:05;0.77;;;0.60;;
9700;SDS011;4889;48.620;7.892;2023-01-04T07:14:30;1.10;;;1.00;;
9700;SDS011;4889;48.620;7.892;2023-01-04T07:16:55;0.60;;;0.30;;
9700;SDS011;4889;48.620;7.892;2023-01-04T07:19:20;0.70;;;0.30;;
9700;SDS011;4889;48.620;7.892;2023-01-04T07:21:46;0.70;;;0.37;;
9700;SDS011;4889;48.620;7.892;2023-01-04T07:24:11;10.20;;;0.77;;
9700;SDS011;4889;48.620;7.892;2023-01-04T07:26:37;0.63;;;0.40;;
9700;SDS011;4889;48.620;7.892;2023-01-04T07:29:02;0.93;;;0.73;;
9700;SDS011;4889;48.620;7.892;2023-01-04T07:31:41;0.70;;;0.30;;
9700;SDS011;4889;48.620;7.892;2023-01-04T07:34:06;1.43;;;0.50;;
9700;SDS011;4889;48.620;7.892;2023-01-04T07:36:31;0.60;;;0.30;;
9700;SDS011;4889;48.620;7.892;2023-01-04T07:39:00;0.70;;;0.40;;
9700;SDS011;4889;48.620;7.892;2023-01-04T07:41:25;0.60;;;0.30;;
9700;SDS011;4889;48.620;7.892;2023-01-04T07:43:50;0.60;;;0.30;;
9700;SDS011;4889;48.620;7.892;2023-01-04T07:46:15;0.50;;;0.30;;
9700;SDS011;4889;48.620;7.892;2023-01-04T07:48:41;1.70;;;0.63;;
9700;SDS011;4889;48.620;7.892;2023-01-04T07:51:06;0.90;;;0.53;;
9700;SDS011;4889;48.620;7.892;2023-01-04T07:53:32;1.67;;;0.60;;
9700;SDS011;4889;48.620;7.892;2023-01-04T07:55:57;0.60;;;0.27;;
9700;SDS011;4889;48.620;7.892;2023-01-04T07:58:22;0.67;;;0.30;;
9700;SDS011;4889;48.620;7.892;2023-01-04T08:00:48;1.03;;;0.50;;
9700;SDS011;4889;48.620;7.892;2023-01-04T08:03:14;6.00;;;0.50;;
9700;SDS011;4889;48.620;7.892;2023-01-04T08:05:39;0.60;;;0.30;;
9700;SDS011;4889;48.620;7.892;2023-01-04T08:08:06;0.60;;;0.40;;
9700;SDS011;4889;48.620;7.892;2023-01-04T08:10:31;2.43;;;0.30;;
9700;SDS011;4889;48.620;7.892;2023-01-04T08:12:57;0.87;;;0.50;;
9700;SDS011;4889;48.620;7.892;2023-01-04T08:15:22;0.50;;;0.27;;
9700;SDS011;4889;48.620;7.892;2023-01-04T08:17:48;0.60;;;0.30;;
9700;SDS011;4889;48.620;7.892;2023-01-04T08:20:13;0.60;;;0.30;;
9700;SDS011;4889;48.620;7.892;2023-01-04T08:22:38;0.90;;;0.53;;
9700;SDS011;4889;48.620;7.892;2023-01-04T08:25:03;0.83;;;0.40;;
9700;SDS011;4889;48.620;7.892;2023-01-04T08:27:30;0.60;;;0.30;;
9700;SDS011;4889;48.620;7.892;2023-01-04T08:29:55;0.70;;;0.40;;
9700;SDS011;4889;48.620;7.892;2023-01-04T08:32:20;1.27;;;0.63;;
9700;SDS011;4889;48.620;7.892;2023-01-04T08:34:46;1.40;;;0.70;;
9700;SDS011;4889;48.620;7.892;2023-01-04T08:37:11;0.70;;;0.47;;
9700;SDS011;4889;48.620;7.892;2023-01-04T08:39:36;0.80;;;0.77;;
9700;SDS011;4889;48.620;7.892;2023-01-04T08:42:02;1.70;;;0.30;;
9700;SDS011;4889;48.620;7.892;2023-01-04T08:44:27;0.50;;;0.20;;
9700;SDS011;4889;48.620;7.892;2023-01-04T08:46:53;0.50;;;0.20;;
9700;SDS011;4889;48.620;7.892;2023-01-04T08:49:18;0.60;;;0.30;;
9700;SDS011;4889;48.620;7.892;2023-01-04T08:51:44;1.00;;;0.43;;
9700;SDS011;4889;48.620;7.892;2023-01-04T08:54:09;13.63;;;0.50;;
9700;SDS011;4889;48.620;7.892;2023-01-04T08:56:35;0.80;;;0.50;;
9700;SDS011;4889;48.620;7.892;2023-01-04T08:59:01;0.50;;;0.30;;
9700;SDS011;4889;48.620;7.892;2023-01-04T09:01:26;0.60;;;0.40;;
9700;SDS011;4889;48.620;7.892;2023-01-04T09:03:51;0.83;;;0.40;;
9700;SDS011;4889;48.620;7.892;2023-01-04T09:06:19;0.60;;;0.30;;
9700;SDS011;4889;48.620;7.892;2023-01-04T09:08:45;1.87;;;0.53;;
9700;SDS011;4889;48.620;7.892;2023-01-04T09:11:14;4.20;;;0.83;;
9700;SDS011;4889;48.620;7.892;2023-01-04T09:13:40;0.87;;;0.73;;
9700;SDS011;4889;48.620;7.892;2023-01-04T09:16:07;0.60;;;0.30;;
9700;SDS011;4889;48.620;7.892;2023-01-04T09:18:32;1.03;;;0.93;;
9700;SDS011;4889;48.620;7.892;2023-01-04T09:20:58;1.10;;;0.80;;
9700;SDS011;4889;48.620;7.892;2023-01-04T09:23:25;0.50;;;0.20;;
9700;SDS011;4889;48.620;7.892;2023-01-04T09:25:52;1.37;;;0.60;;
9700;SDS011;4889;48.620;7.892;2023-01-04T09:28:18;1.17;;;0.50;;
9700;SDS011;4889;48.620;7.892;2023-01-04T09:30:43;0.60;;;0.30;;
9700;SDS011;4889;48.620;7.892;2023-01-04T09:33:08;0.63;;;0.30;;
9700;SDS011;4889;48.620;7.892;2023-01-04T09:35:33;0.50;;;0.20;;
9700;SDS011;4889;48.620;7.892;2023-01-04T09:37:59;3.90;;;1.33;;
9700;SDS011;4889;48.620;7.892;2023-01-04T09:40:26;0.60;;;0.30;;
9700;SDS011;4889;48.620;7.892;2023-01-04T09:42:54;0.60;;;0.30;;
9700;SDS011;4889;48.620;7.892;2023-01-04T09:45:21;0.60;;;0.30;;
9700;SDS011;4889;48.620;7.892;2023-01-04T09:50:13;0.60;;;0.27;;
9700;SDS011;4889;48.620;7.892;2023-01-04T09:55:22;0.50;;;0.30;;
9700;SDS011;4889;48.620;7.892;2023-01-04T09:57:50;5.33;;;0.40;;
9700;SDS011;4889;48.620;7.892;2023-01-04T10:00:19;1.53;;;0.40;;
9700;SDS011;4889;48.620;7.892;2023-01-04T10:02:47;1.37;;;0.53;;
9700;SDS011;4889;48.620;7.892;2023-01-04T10:05:17;1.07;;;0.53;;
9700;SDS011;4889;48.620;7.892;2023-01-04T10:07:43;0.60;;;0.30;;
9700;SDS011;4889;48.620;7.892;2023-01-04T10:10:12;0.70;;;0.40;;
9700;SDS011;4889;48.620;7.892;2023-01-04T10:12:44;0.70;;;0.30;;
9700;SDS011;4889;48.620;7.892;2023-01-04T10:15:17;0.60;;;0.30;;
9700;SDS011;4889;48.620;7.892;2023-01-04T10:23:40;1.10;;;0.60;;
9700;SDS011;4889;48.620;7.892;2023-01-04T10:26:12;0.80;;;0.30;;
9700;SDS011;4889;48.620;7.892;2023-01-04T10:36:28;0.83;;;0.57;;
9700;SDS011;4889;48.620;7.892;2023-01-04T10:39:02;0.60;;;0.20;;
9700;SDS011;4889;48.620;7.892;2023-01-04T10:41:30;1.87;;;0.50;;
9700;SDS011;4889;48.620;7.892;2023-01-04T10:44:06;0.60;;;0.30;;
9700;SDS011;4889;48.620;7.892;2023-01-04T10:47:25;1.03;;;0.60;;
9700;SDS011;4889;48.620;7.892;2023-01-04T10:52:07;1.00;;;0.40;;
9700;SDS011;4889;48.620;7.892;2023-01-04T10:54:37;0.50;;;0.30;;
9700;SDS011;4889;48.620;7.892;2023-01-04T10:57:09;1.10;;;0.60;;
9700;SDS011;4889;48.620;7.892;2023-01-04T10:59:47;0.80;;;0.40;;
9700;SDS011;4889;48.620;7.892;2023-01-04T11:02:16;0.93;;;0.33;;
9700;SDS011;4889;48.620;7.892;2023-01-04T11:04:43;0.80;;;0.40;;
9700;SDS011;4889;48.620;7.892;2023-01-04T11:07:18;0.60;;;0.30;;
9700;SDS011;4889;48.620;7.892;2023-01-04T11:09:52;0.60;;;0.30;;
9700;SDS011;4889;48.620;7.892;2023-01-04T11:12:19;2.10;;;0.50;;
9700;SDS011;4889;48.620;7.892;2023-01-04T11:14:47;0.60;;;0.40;;
9700;SDS011;4889;48.620;7.892;2023-01-04T11:17:12;2.83;;;0.87;;
9700;SDS011;4889;48.620;7.892;2023-01-04T11:19:38;0.80;;;0.40;;
9700;SDS011;4889;48.620;7.892;2023-01-04T11:22:12;0.80;;;0.40;;
9700;SDS011;4889;48.620;7.892;2023-01-04T11:24:38;1.20;;;0.50;;
9700;SDS011;4889;48.620;7.892;2023-01-04T11:27:05;4.93;;;0.40;;
9700;SDS011;4889;48.620;7.892;2023-01-04T11:29:32;3.60;;;0.40;;
9700;SDS011;4889;48.620;7.892;2023-01-04T11:32:01;0.70;;;0.40;;
9700;SDS011;4889;48.620;7.892;2023-01-04T11:39:48;0.60;;;0.20;;
9700;SDS011;4889;48.620;7.892;2023-01-04T11:42:20;0.80;;;0.30;;
9700;SDS011;4889;48.620;7.892;2023-01-04T11:45:15;1.30;;;0.50;;
9700;SDS011;4889;48.620;7.892;2023-01-04T11:47:32;0.80;;;0.50;;
9700;SDS011;4889;48.620;7.892;2023-01-04T11:49:57;1.13;;;0.67;;
9700;SDS011;4889;48.620;7.892;2023-01-04T11:55:31;0.70;;;0.43;;
9700;SDS011;4889;48.620;7.892;2023-01-04T11:58:05;0.60;;;0.30;;
9700;SDS011;4889;48.620;7.892;2023-01-04T12:00:31;3.03;;;0.57;;
9700;SDS011;4889;48.620;7.892;2023-01-04T12:03:09;0.70;;;0.37;;
9700;SDS011;4889;48.620;7.892;2023-01-04T12:05:34;0.60;;;0.40;;
9700;SDS011;4889;48.620;7.892;2023-01-04T12:07:59;1.10;;;0.67;;
9700;SDS011;4889;48.620;7.892;2023-01-04T12:10:25;0.60;;;0.30;;
9700;SDS011;4889;48.620;7.892;2023-01-04T12:12:55;1.00;;;0.53;;
9700;SDS011;4889;48.620;7.892;2023-01-04T12:15:30;1.23;;;0.40;;
9700;SDS011;4889;48.620;7.892;2023-01-04T12:18:00;1.13;;;0.47;;
9700;SDS011;4889;48.620;7.892;2023-01-04T12:20:27;1.00;;;0.50;;
9700;SDS011;4889;48.620;7.892;2023-01-04T12:22:53;0.73;;;0.30;;
9700;SDS011;4889;48.620;7.892;2023-01-04T12:25:35;1.07;;;0.47;;
9700;SDS011;4889;48.620;7.892;2023-01-04T12:28:02;1.10;;;0.50;;
9700;SDS011;4889;48.620;7.892;2023-01-04T12:30:48;0.97;;;0.50;;
9700;SDS011;4889;48.620;7.892;2023-01-04T12:33:35;0.70;;;0.40;;
9700;SDS011;4889;48.620;7.892;2023-01-04T12:35:59;0.83;;;0.53;;
9700;SDS011;4889;48.620;7.892;2023-01-04T12:41:09;2.17;;;0.47;;
9700;SDS011;4889;48.620;7.892;2023-01-04T12:43:37;0.70;;;0.40;;
9700;SDS011;4889;48.620;7.892;2023-01-04T12:49:43;0.83;;;0.50;;
9700;SDS011;4889;48.620;7.892;2023-01-04T12:59:56;0.50;;;0.30;;
9700;SDS011;4889;48.620;7.892;2023-01-04T13:02:23;0.60;;;0.30;;
9700;SDS011;4889;48.620;7.892;2023-01-04T13:04:53;1.13;;;0.53;;
9700;SDS011;4889;48.620;7.892;2023-01-04T13:07:25;0.50;;;0.20;;
9700;SDS011;4889;48.620;7.892;2023-01-04T13:10:34;0.60;;;0.30;;
9700;SDS011;4889;48.620;7.892;2023-01-04T13:13:04;0.80;;;0.50;;
9700;SDS011;4889;48.620;7.892;2023-01-04T13:18:15;0.87;;;0.40;;
9700;SDS011;4889;48.620;7.892;2023-01-04T13:20:47;0.60;;;0.30;;
9700;SDS011;4889;48.620;7.892;2023-01-04T13:23:13;0.60;;;0.30;;
9700;SDS011;4889;48.620;7.892;2023-01-04T13:25:39;0.60;;;0.30;;
9700;SDS011;4889;48.620;7.892;2023-01-04T13:28:04;0.80;;;0.70;;
9700;SDS011;4889;48.620;7.892;2023-01-04T13:30:36;0.50;;;0.30;;
9700;SDS011;4889;48.620;7.892;2023-01-04T13:33:15;0.90;;;0.47;;
9700;SDS011;4889;48.620;7.892;2023-01-04T13:35:42;0.70;;;0.30;;
9700;SDS011;4889;48.620;7.892;2023-01-04T13:38:11;0.80;;;0.50;;
9700;SDS011;4889;48.620;7.892;2023-01-04T13:40:37;0.80;;;0.30;;
9700;SDS011;4889;48.620;7.892;2023-01-04T13:43:11;0.60;;;0.30;;
9700;SDS011;4889;48.620;7.892;2023-01-04T13:48:22;0.60;;;0.30;;
9700;SDS011;4889;48.620;7.892;2023-01-04T13:51:01;0.70;;;0.43;;
9700;SDS011;4889;48.620;7.892;2023-01-04T13:53:27;1.87;;;0.50;;
9700;SDS011;4889;48.620;7.892;2023-01-04T13:55:54;0.60;;;0.30;;
9700;SDS011;4889;48.620;7.892;2023-01-04T13:58:20;1.07;;;0.40;;
9700;SDS011;4889;48.620;7.892;2023-01-04T14:06:14;0.90;;;0.50;;
9700;SDS011;4889;48.620;7.892;2023-01-04T14:08:43;0.60;;;0.30;;
9700;SDS011;4889;48.620;7.892;2023-01-04T14:11:14;0.93;;;0.30;;
9700;SDS011;4889;48.620;7.892;2023-01-04T14:14:00;0.90;;;0.60;;
9700;SDS011;4889;48.620;7.892;2023-01-04T14:16:26;0.70;;;0.50;;
9700;SDS011;4889;48.620;7.892;2023-01-04T14:18:51;0.60;;;0.30;;
9700;SDS011;4889;48.620;7.892;2023-01-04T14:21:16;0.90;;;0.30;;
9700;SDS011;4889;48.620;7.892;2023-01-04T14:23:42;1.20;;;0.60;;
9700;SDS011;4889;48.620;7.892;2023-01-04T14:26:07;0.60;;;0.30;;
9700;SDS011;4889;48.620;7.892;2023-01-04T14:28:52;1.73;;;0.50;;
9700;SDS011;4889;48.620;7.892;2023-01-04T14:31:18;1.43;;;0.77;;
9700;SDS011;4889;48.620;7.892;2023-01-04T14:33:45;0.50;;;0.30;;
9700;SDS011;4889;48.620;7.892;2023-01-04T14:36:12;0.80;;;0.30;;
9700;SDS011;4889;48.620;7.892;2023-01-04T14:38:39;0.70;;;0.40;;
9700;SDS011;4889;48.620;7.892;2023-01-04T14:41:17;2.30;;;0.33;;
9700;SDS011;4889;48.620;7.892;2023-01-04T14:43:44;0.60;;;0.30;;
9700;SDS011;4889;48.620;7.892;2023-01-04T14:46:10;0.60;;;0.30;;
9700;SDS011;4889;48.620;7.892;2023-01-04T14:48:35;0.53;;;0.27;;
9700;SDS011;4889;48.620;7.892;2023-01-04T14:51:01;0.80;;;0.37;;
9700;SDS011;4889;48.620;7.892;2023-01-04T14:53:27;0.80;;;0.40;;
9700;SDS011;4889;48.620;7.892;2023-01-04T14:55:53;0.83;;;0.40;;
9700;SDS011;4889;48.620;7.892;2023-01-04T14:58:21;0.60;;;0.40;;
9700;SDS011;4889;48.620;7.892;2023-01-04T15:00:46;0.60;;;0.30;;
9700;SDS011;4889;48.620;7.892;2023-01-04T15:03:11;1.23;;;0.40;;
9700;SDS011;4889;48.620;7.892;2023-01-04T15:05:37;0.60;;;0.30;;
9700;SDS011;4889;48.620;7.892;2023-01-04T15:08:02;0.70;;;0.40;;
9700;SDS011;4889;48.620;7.892;2023-01-04T15:10:28;1.80;;;0.40;;
9700;SDS011;4889;48.620;7.892;2023-01-04T15:12:54;1.07;;;0.57;;
9700;SDS011;4889;48.620;7.892;2023-01-04T15:15:19;0.70;;;0.30;;
9700;SDS011;4889;48.620;7.892;2023-01-04T15:17:45;0.50;;;0.20;;
9700;SDS011;4889;48.620;7.892;2023-01-04T15:20:10;0.50;;;0.20;;
9700;SDS011;4889;48.620;7.892;2023-01-04T15:22:36;1.00;;;0.90;;
9700;SDS011;4889;48.620;7.892;2023-01-04T15:25:01;0.93;;;0.30;;
9700;SDS011;4889;48.620;7.892;2023-01-04T15:27:27;0.60;;;0.30;;
9700;SDS011;4889;48.620;7.892;2023-01-04T15:29:52;0.60;;;0.30;;
9700;SDS011;4889;48.620;7.892;2023-01-04T15:32:17;0.60;;;0.30;;
9700;SDS011;4889;48.620;7.892;2023-01-04T15:34:42;0.53;;;0.30;;
9700;SDS011;4889;48.620;7.892;2023-01-04T15:37:07;0.60;;;0.30;;
9700;SDS011;4889;48.620;7.892;2023-01-04T15:39:33;3.80;;;0.40;;
9700;SDS011;4889;48.620;7.892;2023-01-04T15:41:58;1.23;;;0.30;;
9700;SDS011;4889;48.620;7.892;2023-01-04T15:44:42;1.37;;;0.40;;
9700;SDS011;4889;48.620;7.892;2023-01-04T15:47:07;0.60;;;0.30;;
9700;SDS011;4889;48.620;7.892;2023-01-04T15:49:32;0.87;;;0.40;;
9700;SDS011;4889;48.620;7.892;2023-01-04T15:51:58;0.67;;;0.40;;
9700;SDS011;4889;48.620;7.892;2023-01-04T15:54:24;0.60;;;0.30;;
9700;SDS011;4889;48.620;7.892;2023-01-04T15:56:49;0.50;;;0.20;;
9700;SDS011;4889;48.620;7.892;2023-01-04T15:59:14;1.10;;;0.40;;
9700;SDS011;4889;48.620;7.892;2023-01-04T16:01:40;1.20;;;0.50;;
9700;SDS011;4889;48.620;7.892;2023-01-04T16:04:07;0.60;;;0.40;;
9700;SDS011;4889;48.620;7.892;2023-01-04T16:06:32;0.60;;;0.30;;
9700;SDS011;4889;48.620;7.892;2023-01-04T16:08:57;0.60;;;0.30;;
9700;SDS011;4889;48.620;7.892;2023-01-04T16:11:24;6.30;;;1.57;;
9700;SDS011;4889;48.620;7.892;2023-01-04T16:13:50;0.60;;;0.30;;
9700;SDS011;4889;48.620;7.892;2023-01-04T16:16:15;13.53;;;2.13;;
9700;SDS011;4889;48.620;7.892;2023-01-04T16:18:44;2.30;;;0.60;;
9700;SDS011;4889;48.620;7.892;2023-01-04T16:21:10;0.80;;;0.40;;
9700;SDS011;4889;48.620;7.892;2023-01-04T16:23:35;1.47;;;0.47;;
9700;SDS011;4889;48.620;7.892;2023-01-04T16:26:02;0.60;;;0.30;;
9700;SDS011;4889;48.620;7.892;2023-01-04T16:28:27;0.80;;;0.40;;
9700;SDS011;4889;48.620;7.892;2023-01-04T16:30:52;0.63;;;0.30;;
9700;SDS011;4889;48.620;7.892;2023-01-04T16:33:20;47.83;;;1.03;;
9700;SDS011;4889;48.620;7.892;2023-01-04T16:35:45;0.60;;;0.40;;
9700;SDS011;4889;48.620;7.892;2023-01-04T16:38:10;0.73;;;0.40;;
9700;SDS011;4889;48.620;7.892;2023-01-04T16:40:35;0.50;;;0.20;;
9700;SDS011;4889;48.620;7.892;2023-01-04T16:43:00;0.80;;;0.40;;
9700;SDS011;4889;48.620;7.892;2023-01-04T16:45:26;1.80;;;0.73;;
9700;SDS011;4889;48.620;7.892;2023-01-04T16:47:52;1.13;;;0.50;;
9700;SDS011;4889;48.620;7.892;2023-01-04T16:50:18;1.23;;;0.80;;